sensor_id;sensor_type;location;lat;lon;timestamp;pressure;altitude;pressure_sealevel;temperature;humidity
67377;BME280;54261;46.086;6.588;2022-11-20T00:04:03;92114.06;;;5.15;41.33
67377;BME280;54261;46.086;6.588;2022-11-20T00:09:04;92101.72;;;5.52;40.78
67377;BME280;54261;46.086;6.588;2022-11-20T00:14:08;92110.88;;;4.47;40.88
67377;BME280;54261;46.086;6.588;2022-11-20T00:19:11;92074.69;;;4.65;41.82
67377;BME280;54261;46.086;6.588;2022-11-20T00:24:13;92121.16;;;4.87;41.81
67377;BME280;54261;46.086;6.588;2022-11-20T00:29:15;92132.72;;;4.96;41.81
67377;BME280;54261;46.086;6.588;2022-11-20T00:34:17;92140.41;;;4.78;40.98
67377;BME280;54261;46.086;6.588;2022-11-20T00:39:19;92141.38;;;5.21;40.46
67377;BME280;54261;46.086;6.588;2022-11-20T00:44:21;92151.09;;;5.11;40.60
67377;BME280;54261;46.086;6.588;2022-11-20T00:49:23;92130.91;;;4.39;40.70
67377;BME280;54261;46.086;6.588;2022-11-20T00:54:25;92144.59;;;4.27;41.99
67377;BME280;54261;46.086;6.588;2022-11-20T00:59:27;92158.72;;;4.22;41.88
67377;BME280;54261;46.086;6.588;2022-11-20T01:04:29;92144.53;;;4.32;42.07
67377;BME280;54261;46.086;6.588;2022-11-20T01:09:31;92156.34;;;4.97;41.47
67377;BME280;54261;46.086;6.588;2022-11-20T01:14:33;92168.47;;;3.83;43.36
67377;BME280;54261;46.086;6.588;2022-11-20T01:19:35;92170.22;;;3.39;44.23
67377;BME280;54261;46.086;6.588;2022-11-20T01:24:37;92170.59;;;4.30;43.71
67377;BME280;54261;46.086;6.588;2022-11-20T01:29:39;92160.69;;;4.36;42.88
67377;BME280;54261;46.086;6.588;2022-11-20T01:34:41;92188.66;;;4.52;41.80
67377;BME280;54261;46.086;6.588;2022-11-20T01:39:43;92179.22;;;4.22;42.62
67377;BME280;54261;46.086;6.588;2022-11-20T01:49:54;92187.22;;;4.41;43.59
67377;BME280;54261;46.086;6.588;2022-11-20T01:55:04;92191.59;;;3.78;44.94
67377;BME280;54261;46.086;6.588;2022-11-20T02:00:13;92188.41;;;4.30;43.51
67377;BME280;54261;46.086;6.588;2022-11-20T02:05:27;92182.63;;;3.98;45.11
67377;BME280;54261;46.086;6.588;2022-11-20T02:10:31;92195.19;;;4.79;43.62
67377;BME280;54261;46.086;6.588;2022-11-20T02:15:33;92180.94;;;5.08;43.21
67377;BME280;54261;46.086;6.588;2022-11-20T02:20:38;92182.31;;;5.39;42.93
67377;BME280;54261;46.086;6.588;2022-11-20T02:25:43;92188.47;;;5.20;42.74
67377;BME280;54261;46.086;6.588;2022-11-20T02:30:46;92179.81;;;5.48;41.89
67377;BME280;54261;46.086;6.588;2022-11-20T02:35:48;92186.28;;;4.89;43.26
67377;BME280;54261;46.086;6.588;2022-11-20T02:40:50;92178.81;;;4.91;43.10
67377;BME280;54261;46.086;6.588;2022-11-20T02:45:56;92193.03;;;5.34;42.50
67377;BME280;54261;46.086;6.588;2022-11-20T02:50:58;92189.34;;;5.16;42.90
67377;BME280;54261;46.086;6.588;2022-11-20T02:56:00;92165.63;;;5.33;43.28
67377;BME280;54261;46.086;6.588;2022-11-20T03:01:02;92196.09;;;5.60;43.14
67377;BME280;54261;46.086;6.588;2022-11-20T03:06:04;92199.09;;;5.87;42.79
67377;BME280;54261;46.086;6.588;2022-11-20T03:11:07;92206.38;;;5.81;42.42
67377;BME280;54261;46.086;6.588;2022-11-20T03:16:18;92200.03;;;5.49;42.73
67377;BME280;54261;46.086;6.588;2022-11-20T03:21:21;92197.50;;;5.72;42.40
67377;BME280;54261;46.086;6.588;2022-11-20T03:26:25;92205.94;;;6.07;41.66
67377;BME280;54261;46.086;6.588;2022-11-20T03:31:30;92200.47;;;5.84;41.59
67377;BME280;54261;46.086;6.588;2022-11-20T03:36:33;92200.34;;;5.61;42.26
67377;BME280;54261;46.086;6.588;2022-11-20T03:41:40;92209.25;;;5.85;41.26
67377;BME280;54261;46.086;6.588;2022-11-20T03:46:42;92215.47;;;5.80;41.80
67377;BME280;54261;46.086;6.588;2022-11-20T03:51:44;92205.41;;;5.24;41.90
67377;BME280;54261;46.086;6.588;2022-11-20T03:56:46;92226.34;;;5.31;42.58
67377;BME280;54261;46.086;6.588;2022-11-20T04:01:48;92230.16;;;5.77;42.54
67377;BME280;54261;46.086;6.588;2022-11-20T04:06:50;92216.00;;;5.96;42.26
67377;BME280;54261;46.086;6.588;2022-11-20T04:11:52;92211.88;;;5.57;42.13
67377;BME280;54261;46.086;6.588;2022-11-20T04:16:54;92226.34;;;5.97;42.22
67377;BME280;54261;46.086;6.588;2022-11-20T04:21:56;92233.47;;;6.30;41.57
67377;BME280;54261;46.086;6.588;2022-11-20T04:26:58;92237.78;;;6.12;41.45
67377;BME280;54261;46.086;6.588;2022-11-20T04:32:00;92240.53;;;5.79;41.79
67377;BME280;54261;46.086;6.588;2022-11-20T04:37:02;92218.16;;;6.08;41.16
67377;BME280;54261;46.086;6.588;2022-11-20T04:42:04;92233.81;;;5.48;42.33
67377;BME280;54261;46.086;6.588;2022-11-20T04:47:24;92232.69;;;5.68;42.58
67377;BME280;54261;46.086;6.588;2022-11-20T04:52:26;92242.81;;;6.28;41.84
67377;BME280;54261;46.086;6.588;2022-11-20T04:57:28;92253.91;;;6.35;41.45
67377;BME280;54261;46.086;6.588;2022-11-20T05:02:31;92242.25;;;6.03;41.03
67377;BME280;54261;46.086;6.588;2022-11-20T05:07:33;92225.25;;;5.99;42.10
67377;BME280;54261;46.086;6.588;2022-11-20T05:12:35;92224.06;;;6.19;41.87
67377;BME280;54261;46.086;6.588;2022-11-20T05:17:38;92236.72;;;6.55;41.35
67377;BME280;54261;46.086;6.588;2022-11-20T05:22:40;92217.44;;;5.88;42.07
67377;BME280;54261;46.086;6.588;2022-11-20T05:27:42;92229.31;;;6.38;41.23
67377;BME280;54261;46.086;6.588;2022-11-20T05:32:44;92250.25;;;6.73;40.61
67377;BME280;54261;46.086;6.588;2022-11-20T05:37:46;92251.72;;;6.65;40.33
67377;BME280;54261;46.086;6.588;2022-11-20T05:42:48;92234.34;;;6.53;40.29
67377;BME280;54261;46.086;6.588;2022-11-20T05:47:50;92248.16;;;6.56;40.41
67377;BME280;54261;46.086;6.588;2022-11-20T05:52:51;92241.06;;;6.51;40.85
67377;BME280;54261;46.086;6.588;2022-11-20T05:57:54;92249.53;;;6.67;40.74
67377;BME280;54261;46.086;6.588;2022-11-20T06:02:56;92252.13;;;6.72;40.64
67377;BME280;54261;46.086;6.588;2022-11-20T06:08:00;92241.44;;;6.58;40.50
67377;BME280;54261;46.086;6.588;2022-11-20T06:13:02;92236.72;;;6.55;40.80
67377;BME280;54261;46.086;6.588;2022-11-20T06:18:04;92229.41;;;6.33;39.96
67377;BME280;54261;46.086;6.588;2022-11-20T06:23:06;92237.81;;;5.65;41.06
67377;BME280;54261;46.086;6.588;2022-11-20T06:28:09;92255.44;;;5.94;41.36
67377;BME280;54261;46.086;6.588;2022-11-20T06:33:11;92250.41;;;5.92;41.46
67377;BME280;54261;46.086;6.588;2022-11-20T06:38:13;92238.19;;;6.19;40.28
67377;BME280;54261;46.086;6.588;2022-11-20T06:43:14;92233.34;;;5.46;41.02
67377;BME280;54261;46.086;6.588;2022-11-20T06:48:17;92240.19;;;5.14;40.91
67377;BME280;54261;46.086;6.588;2022-11-20T06:53:19;92240.47;;;4.74;42.15
67377;BME280;54261;46.086;6.588;2022-11-20T06:58:21;92243.22;;;5.07;42.03
67377;BME280;54261;46.086;6.588;2022-11-20T07:03:23;92254.16;;;3.89;42.61
67377;BME280;54261;46.086;6.588;2022-11-20T07:08:25;92265.66;;;4.58;42.08
67377;BME280;54261;46.086;6.588;2022-11-20T07:13:28;92254.53;;;4.07;43.15
67377;BME280;54261;46.086;6.588;2022-11-20T07:18:31;92254.13;;;4.87;41.72
67377;BME280;54261;46.086;6.588;2022-11-20T07:23:33;92251.34;;;5.16;40.98
67377;BME280;54261;46.086;6.588;2022-11-20T07:28:37;92264.84;;;4.81;41.00
67377;BME280;54261;46.086;6.588;2022-11-20T07:33:39;92252.09;;;5.17;40.45
67377;BME280;54261;46.086;6.588;2022-11-20T07:38:41;92272.59;;;5.35;40.17
67377;BME280;54261;46.086;6.588;2022-11-20T07:43:43;92277.78;;;5.46;39.55
67377;BME280;54261;46.086;6.588;2022-11-20T07:48:45;92266.34;;;5.45;40.12
67377;BME280;54261;46.086;6.588;2022-11-20T07:53:47;92275.81;;;5.32;39.31
67377;BME280;54261;46.086;6.588;2022-11-20T07:58:49;92267.69;;;5.23;40.18
67377;BME280;54261;46.086;6.588;2022-11-20T08:03:51;92278.78;;;4.92;40.59
67377;BME280;54261;46.086;6.588;2022-11-20T08:08:53;92224.41;;;4.41;40.55
67377;BME280;54261;46.086;6.588;2022-11-20T08:13:55;92270.34;;;4.85;41.09
67377;BME280;54261;46.086;6.588;2022-11-20T08:19:17;92278.09;;;4.13;42.26
67377;BME280;54261;46.086;6.588;2022-11-20T08:24:20;92271.00;;;4.33;41.72
67377;BME280;54261;46.086;6.588;2022-11-20T08:29:22;92279.22;;;4.80;41.56
67377;BME280;54261;46.086;6.588;2022-11-20T08:34:24;92286.94;;;4.33;42.11
67377;BME280;54261;46.086;6.588;2022-11-20T08:39:26;92276.34;;;4.77;42.23
67377;BME280;54261;46.086;6.588;2022-11-20T08:44:28;92286.03;;;4.43;42.03
67377;BME280;54261;46.086;6.588;2022-11-20T08:49:30;92227.88;;;4.61;41.18
67377;BME280;54261;46.086;6.588;2022-11-20T08:54:32;92294.94;;;4.77;41.57
67377;BME280;54261;46.086;6.588;2022-11-20T08:59:34;92256.63;;;4.34;42.28
67377;BME280;54261;46.086;6.588;2022-11-20T09:04:56;92260.22;;;3.95;43.25
67377;BME280;54261;46.086;6.588;2022-11-20T09:09:58;92267.72;;;4.17;43.56
67377;BME280;54261;46.086;6.588;2022-11-20T09:15:21;92290.09;;;4.60;42.84
67377;BME280;54261;46.086;6.588;2022-11-20T09:20:24;92293.75;;;5.46;42.77
67377;BME280;54261;46.086;6.588;2022-11-20T09:25:26;92288.06;;;4.95;42.85
67377;BME280;54261;46.086;6.588;2022-11-20T09:30:28;92297.38;;;2.04;48.70
67377;BME280;54261;46.086;6.588;2022-11-20T09:35:30;92305.63;;;1.87;52.31
67377;BME280;54261;46.086;6.588;2022-11-20T09:40:34;92317.75;;;0.26;54.17
67377;BME280;54261;46.086;6.588;2022-11-20T09:51:20;92304.31;;;-0.16;54.80
67377;BME280;54261;46.086;6.588;2022-11-20T09:56:28;92303.97;;;-0.95;57.64
67377;BME280;54261;46.086;6.588;2022-11-20T10:01:34;92300.06;;;-1.42;60.66
67377;BME280;54261;46.086;6.588;2022-11-20T10:17:13;92314.63;;;-1.62;59.38
67377;BME280;54261;46.086;6.588;2022-11-20T10:27:52;92309.31;;;-1.67;58.53
67377;BME280;54261;46.086;6.588;2022-11-20T10:33:06;92303.97;;;-1.23;58.43
67377;BME280;54261;46.086;6.588;2022-11-20T10:43:32;92219.00;;;-0.75;54.29
67377;BME280;54261;46.086;6.588;2022-11-20T10:48:43;92313.63;;;-0.78;53.91
67377;BME280;54261;46.086;6.588;2022-11-20T11:04:37;92309.34;;;0.39;52.66
67377;BME280;54261;46.086;6.588;2022-11-20T11:09:55;92303.22;;;2.01;49.50
67377;BME280;54261;46.086;6.588;2022-11-20T11:14:58;92271.81;;;4.53;45.45
67377;BME280;54261;46.086;6.588;2022-11-20T11:20:04;92299.88;;;-0.05;53.20
67377;BME280;54261;46.086;6.588;2022-11-20T11:25:19;92263.56;;;4.06;43.97
67377;BME280;54261;46.086;6.588;2022-11-20T11:30:24;92295.28;;;4.21;41.96
67377;BME280;54261;46.086;6.588;2022-11-20T11:35:28;92283.59;;;3.93;44.22
67377;BME280;54261;46.086;6.588;2022-11-20T11:40:32;92282.66;;;4.81;38.53
67377;BME280;54261;46.086;6.588;2022-11-20T11:45:36;92270.50;;;2.47;42.14
67377;BME280;54261;46.086;6.588;2022-11-20T11:50:48;92261.00;;;6.39;36.47
67377;BME280;54261;46.086;6.588;2022-11-20T11:56:05;92222.59;;;7.05;32.31
67377;BME280;54261;46.086;6.588;2022-11-20T12:06:37;92224.94;;;1.58;41.80
67377;BME280;54261;46.086;6.588;2022-11-20T12:11:48;92215.03;;;2.06;42.66
67377;BME280;54261;46.086;6.588;2022-11-20T12:16:52;92184.53;;;1.16;42.92
67377;BME280;54261;46.086;6.588;2022-11-20T12:43:32;92172.97;;;5.08;40.03
67377;BME280;54261;46.086;6.588;2022-11-20T13:16:14;92127.47;;;8.54;33.31
67377;BME280;54261;46.086;6.588;2022-11-20T13:21:35;92155.88;;;8.14;30.95
67377;BME280;54261;46.086;6.588;2022-11-20T13:26:38;92113.69;;;5.22;35.97
67377;BME280;54261;46.086;6.588;2022-11-20T13:31:43;92131.31;;;6.72;33.91
67377;BME280;54261;46.086;6.588;2022-11-20T13:36:51;92151.84;;;5.78;37.09
67377;BME280;54261;46.086;6.588;2022-11-20T13:41:59;92137.72;;;6.34;34.33
67377;BME280;54261;46.086;6.588;2022-11-20T13:47:01;92146.19;;;7.09;33.95
67377;BME280;54261;46.086;6.588;2022-11-20T13:52:32;92144.25;;;7.01;33.90
67377;BME280;54261;46.086;6.588;2022-11-20T14:02:53;92139.56;;;2.08;43.64
67377;BME280;54261;46.086;6.588;2022-11-20T14:08:03;92135.44;;;3.90;40.95
67377;BME280;54261;46.086;6.588;2022-11-20T14:13:16;92095.47;;;6.27;36.44
67377;BME280;54261;46.086;6.588;2022-11-20T14:18:20;92123.91;;;4.24;38.36
67377;BME280;54261;46.086;6.588;2022-11-20T14:23:27;92116.84;;;2.47;41.49
67377;BME280;54261;46.086;6.588;2022-11-20T14:28:31;92122.00;;;3.81;39.82
67377;BME280;54261;46.086;6.588;2022-11-20T14:33:33;92114.25;;;2.37;40.68
67377;BME280;54261;46.086;6.588;2022-11-20T14:38:36;92121.84;;;5.87;38.16
67377;BME280;54261;46.086;6.588;2022-11-20T14:43:38;92103.41;;;8.54;34.75
67377;BME280;54261;46.086;6.588;2022-11-20T14:48:46;92099.88;;;7.37;34.68
67377;BME280;54261;46.086;6.588;2022-11-20T14:53:49;92090.88;;;1.43;43.67
67377;BME280;54261;46.086;6.588;2022-11-20T14:58:57;92095.94;;;3.39;41.00
67377;BME280;54261;46.086;6.588;2022-11-20T15:09:14;92096.72;;;6.44;37.37
67377;BME280;54261;46.086;6.588;2022-11-20T15:14:16;92105.72;;;8.11;36.22
67377;BME280;54261;46.086;6.588;2022-11-20T15:19:21;92085.16;;;8.73;33.79
67377;BME280;54261;46.086;6.588;2022-11-20T15:24:23;92084.44;;;8.06;32.57
67377;BME280;54261;46.086;6.588;2022-11-20T15:29:26;92046.69;;;7.41;30.89
67377;BME280;54261;46.086;6.588;2022-11-20T15:34:28;92047.09;;;7.65;32.09
67377;BME280;54261;46.086;6.588;2022-11-20T15:39:30;92061.03;;;8.12;31.88
67377;BME280;54261;46.086;6.588;2022-11-20T15:44:32;92101.00;;;7.36;33.89
67377;BME280;54261;46.086;6.588;2022-11-20T15:49:35;92088.63;;;8.83;32.04
67377;BME280;54261;46.086;6.588;2022-11-20T15:54:37;92053.50;;;4.07;38.40
67377;BME280;54261;46.086;6.588;2022-11-20T15:59:39;92016.50;;;6.54;34.59
67377;BME280;54261;46.086;6.588;2022-11-20T16:04:43;92074.84;;;7.24;33.37
67377;BME280;54261;46.086;6.588;2022-11-20T16:09:45;92094.34;;;6.42;34.72
67377;BME280;54261;46.086;6.588;2022-11-20T16:14:47;92099.81;;;7.19;33.23
67377;BME280;54261;46.086;6.588;2022-11-20T16:20:22;92082.56;;;7.98;33.06
67377;BME280;54261;46.086;6.588;2022-11-20T16:25:24;92083.00;;;5.58;35.12
67377;BME280;54261;46.086;6.588;2022-11-20T16:30:28;92112.41;;;6.82;34.24
67377;BME280;54261;46.086;6.588;2022-11-20T16:35:31;92118.34;;;4.97;34.63
67377;BME280;54261;46.086;6.588;2022-11-20T16:40:33;92145.13;;;6.23;33.55
67377;BME280;54261;46.086;6.588;2022-11-20T16:45:40;92132.25;;;6.53;33.69
67377;BME280;54261;46.086;6.588;2022-11-20T16:50:48;92156.47;;;3.03;40.22
67377;BME280;54261;46.086;6.588;2022-11-20T16:55:50;92126.00;;;4.65;37.88
67377;BME280;54261;46.086;6.588;2022-11-20T17:00:52;92141.16;;;4.26;38.90
67377;BME280;54261;46.086;6.588;2022-11-20T17:05:55;92153.78;;;5.59;37.47
67377;BME280;54261;46.086;6.588;2022-11-20T17:11:04;92153.81;;;6.15;36.78
67377;BME280;54261;46.086;6.588;2022-11-20T17:16:09;92182.25;;;4.10;40.92
67377;BME280;54261;46.086;6.588;2022-11-20T17:21:12;92212.63;;;5.24;39.42
67377;BME280;54261;46.086;6.588;2022-11-20T17:26:23;92235.25;;;5.60;38.27
67377;BME280;54261;46.086;6.588;2022-11-20T17:31:29;92226.44;;;5.07;38.53
67377;BME280;54261;46.086;6.588;2022-11-20T17:36:31;92240.63;;;3.56;43.09
67377;BME280;54261;46.086;6.588;2022-11-20T17:41:33;92235.13;;;3.18;44.07
67377;BME280;54261;46.086;6.588;2022-11-20T17:46:35;92230.03;;;3.56;44.35
67377;BME280;54261;46.086;6.588;2022-11-20T17:51:37;92246.22;;;4.81;41.91
67377;BME280;54261;46.086;6.588;2022-11-20T17:56:41;92277.22;;;3.29;44.97
67377;BME280;54261;46.086;6.588;2022-11-20T18:02:01;92242.47;;;2.91;46.51
67377;BME280;54261;46.086;6.588;2022-11-20T18:07:04;92278.94;;;3.10;47.85
67377;BME280;54261;46.086;6.588;2022-11-20T18:12:06;92293.97;;;1.78;50.93
67377;BME280;54261;46.086;6.588;2022-11-20T18:17:11;92292.69;;;4.65;45.24
67377;BME280;54261;46.086;6.588;2022-11-20T18:22:16;92294.03;;;5.63;43.62
67377;BME280;54261;46.086;6.588;2022-11-20T18:27:19;92254.75;;;4.97;42.00
67377;BME280;54261;46.086;6.588;2022-11-20T18:32:21;92282.41;;;7.04;40.45
67377;BME280;54261;46.086;6.588;2022-11-20T18:37:24;92290.94;;;6.78;40.50
67377;BME280;54261;46.086;6.588;2022-11-20T18:42:26;92294.78;;;4.68;44.14
67377;BME280;54261;46.086;6.588;2022-11-20T18:47:46;92273.16;;;5.32;41.99
67377;BME280;54261;46.086;6.588;2022-11-20T18:52:48;92294.03;;;5.25;43.26
67377;BME280;54261;46.086;6.588;2022-11-20T18:57:51;92268.56;;;4.61;43.63
67377;BME280;54261;46.086;6.588;2022-11-20T19:02:53;92277.47;;;3.33;45.84
67377;BME280;54261;46.086;6.588;2022-11-20T19:07:55;92182.91;;;3.13;45.99
67377;BME280;54261;46.086;6.588;2022-11-20T19:12:57;92284.13;;;5.11;43.38
67377;BME280;54261;46.086;6.588;2022-11-20T19:18:04;92272.59;;;3.75;44.77
67377;BME280;54261;46.086;6.588;2022-11-20T19:23:07;92265.00;;;4.22;43.84
67377;BME280;54261;46.086;6.588;2022-11-20T19:28:09;92281.22;;;3.91;44.87
67377;BME280;54261;46.086;6.588;2022-11-20T19:33:11;92212.63;;;3.45;43.32
67377;BME280;54261;46.086;6.588;2022-11-20T19:38:13;92291.47;;;2.99;46.16
67377;BME280;54261;46.086;6.588;2022-11-20T19:43:15;92281.22;;;4.21;43.96
67377;BME280;54261;46.086;6.588;2022-11-20T19:48:18;92299.69;;;4.07;44.13
67377;BME280;54261;46.086;6.588;2022-11-20T19:53:20;92292.22;;;4.09;43.34
67377;BME280;54261;46.086;6.588;2022-11-20T19:58:22;92307.09;;;2.35;45.27
67377;BME280;54261;46.086;6.588;2022-11-20T20:03:24;92319.53;;;3.05;45.80
67377;BME280;54261;46.086;6.588;2022-11-20T20:08:26;92330.72;;;3.77;45.44
67377;BME280;54261;46.086;6.588;2022-11-20T20:13:28;92332.63;;;1.68;49.64
67377;BME280;54261;46.086;6.588;2022-11-20T20:18:30;92338.88;;;0.95;51.89
67377;BME280;54261;46.086;6.588;2022-11-20T20:23:32;92335.97;;;2.47;49.72
67377;BME280;54261;46.086;6.588;2022-11-20T20:28:35;92349.31;;;2.92;48.59
67377;BME280;54261;46.086;6.588;2022-11-20T20:33:38;92352.81;;;4.61;46.27
67377;BME280;54261;46.086;6.588;2022-11-20T20:38:41;92368.13;;;6.08;43.82
67377;BME280;54261;46.086;6.588;2022-11-20T20:43:44;92371.13;;;6.07;43.45
67377;BME280;54261;46.086;6.588;2022-11-20T20:49:04;92364.25;;;5.48;43.02
67377;BME280;54261;46.086;6.588;2022-11-20T20:54:06;92376.22;;;5.51;42.13
67377;BME280;54261;46.086;6.588;2022-11-20T20:59:08;92399.13;;;5.03;44.38
67377;BME280;54261;46.086;6.588;2022-11-20T21:04:10;92395.97;;;4.52;44.39
67377;BME280;54261;46.086;6.588;2022-11-20T21:09:12;92396.34;;;5.13;43.64
67377;BME280;54261;46.086;6.588;2022-11-20T21:14:14;92398.22;;;4.89;43.71
67377;BME280;54261;46.086;6.588;2022-11-20T21:19:16;92409.31;;;5.83;43.09
67377;BME280;54261;46.086;6.588;2022-11-20T21:24:18;92424.81;;;5.37;43.00
67377;BME280;54261;46.086;6.588;2022-11-20T21:29:21;92424.25;;;6.17;42.18
67377;BME280;54261;46.086;6.588;2022-11-20T21:34:24;92427.28;;;5.53;43.04
67377;BME280;54261;46.086;6.588;2022-11-20T21:39:26;92422.00;;;6.24;42.20
67377;BME280;54261;46.086;6.588;2022-11-20T21:44:31;92439.28;;;5.50;43.91
67377;BME280;54261;46.086;6.588;2022-11-20T21:49:33;92436.28;;;6.81;42.00
67377;BME280;54261;46.086;6.588;2022-11-20T21:54:34;92437.38;;;5.94;43.45
67377;BME280;54261;46.086;6.588;2022-11-20T21:59:36;92414.03;;;6.38;41.14
67377;BME280;54261;46.086;6.588;2022-11-20T22:04:38;92418.81;;;6.22;42.07
67377;BME280;54261;46.086;6.588;2022-11-20T22:09:40;92420.56;;;6.13;43.29
67377;BME280;54261;46.086;6.588;2022-11-20T22:14:42;92421.31;;;3.14;49.12
67377;BME280;54261;46.086;6.588;2022-11-20T22:19:46;92414.16;;;5.37;44.03
67377;BME280;54261;46.086;6.588;2022-11-20T22:24:48;92412.53;;;5.99;43.43
67377;BME280;54261;46.086;6.588;2022-11-20T22:29:50;92413.25;;;5.86;43.34
67377;BME280;54261;46.086;6.588;2022-11-20T22:34:52;92408.16;;;5.70;42.42
67377;BME280;54261;46.086;6.588;2022-11-20T22:39:54;92378.84;;;5.89;42.39
67377;BME280;54261;46.086;6.588;2022-11-20T22:44:56;92394.16;;;5.40;43.50
67377;BME280;54261;46.086;6.588;2022-11-20T22:49:58;92421.91;;;5.34;43.62
67377;BME280;54261;46.086;6.588;2022-11-20T22:55:00;92417.97;;;5.75;43.65
67377;BME280;54261;46.086;6.588;2022-11-20T23:00:02;92415.94;;;5.23;44.36
67377;BME280;54261;46.086;6.588;2022-11-20T23:05:05;92413.25;;;6.38;42.50
67377;BME280;54261;46.086;6.588;2022-11-20T23:10:07;92408.22;;;5.65;42.83
67377;BME280;54261;46.086;6.588;2022-11-20T23:15:09;92393.59;;;6.34;42.28
67377;BME280;54261;46.086;6.588;2022-11-20T23:20:11;92377.94;;;5.61;43.57
67377;BME280;54261;46.086;6.588;2022-11-20T23:25:13;92345.75;;;4.51;44.46
67377;BME280;54261;46.086;6.588;2022-11-20T23:30:15;92397.66;;;5.79;42.73
67377;BME280;54261;46.086;6.588;2022-11-20T23:35:17;92384.50;;;6.02;41.81
67377;BME280;54261;46.086;6.588;2022-11-20T23:40:19;92392.78;;;5.43;42.72
67377;BME280;54261;46.086;6.588;2022-11-20T23:45:21;92414.41;;;5.17;42.87
67377;BME280;54261;46.086;6.588;2022-11-20T23:50:23;92411.09;;;5.88;42.44
67377;BME280;54261;46.086;6.588;2022-11-20T23:55:25;92399.09;;;5.52;42.49
